Flight Track Log - Related Links

Times and Time Zones

All times are in EDT time to prevent confusion due to time zone crossing. See the CTL17 flight status page for this flight to view local times or setup timezone preferences in your user account.

Time Position Orientation Groundspeed Altitude Reporting Facility
EDT Latitude Longitude Course Direction KTS MPH feet Rate Location/Type
Wed 06:24:42 PM 42.2239 -83.5528 218° Southwest 108 124 1,100  Level Cleveland Center
Wed 06:25:37 PM 42.1958 -83.5822 218° Southwest 144 166 1,800 590 Climbing Cleveland Center
Wed 06:26:44 PM 42.1575 -83.6197 216° Southwest 163 188 2,300 465 Climbing Cleveland Center
Wed 06:27:46 PM 42.1158 -83.6175 178° South 151 174 2,800 341 Climbing Cleveland Center
Wed 06:28:47 PM 42.0722 -83.6128 175° South 163 188 3,000 104 Climbing Cleveland Center
Wed 06:29:41 PM 42.0286 -83.6050 172° South 163 188 3,000  Level Cleveland Center
Wed 06:30:49 PM 41.9939 -83.5700 143° Southeast 164 189 3,000  Level Cleveland Center
Wed 06:31:44 PM 41.9808 -83.5133 107° East 165 190 3,000  Level Cleveland Center
Wed 06:32:45 PM 41.9614 -83.4567 115° Southeast 167 192 3,000 188 Level Cleveland Center
Wed 06:33:52 PM 41.9464 -83.3917 107° East 160 184 3,400 393 Climbing Cleveland Center
Wed 06:34:47 PM 41.9308 -83.3408 112° Southeast 159 183 3,800 393 Climbing Cleveland Center
Wed 06:35:54 PM 41.9136 -83.2758 110° East 163 188 4,200 328 Climbing Cleveland Center
Wed 06:36:55 PM 41.8983 -83.2222 111° Southeast 162 186 4,500 344 Climbing Cleveland Center
Wed 06:37:56 PM 41.8831 -83.1631 109° East 159 183 4,900 295 Climbing Cleveland Center
Wed 06:38:57 PM 41.8675 -83.1094 111° Southeast 163 188 5,100 98 Climbing Cleveland Center
Wed 06:39:58 PM 41.8522 -83.0503 109° East 168 193 5,100  Level Cleveland Center
Wed 06:40:59 PM 41.8347 -82.9911 112° Southeast 166 191 5,100  Level Cleveland Center
Wed 06:41:55 PM 41.8169 -82.9375 114° Southeast 167 192 5,100  Level Cleveland Center
Wed 06:43:00 PM 41.8167 -82.8890 90° East  Level FlightAware Approximate
Wed 06:44:15 PM 41.7864 -82.8000 90° East 167 192 5,100  Level Cleveland Center
Wed 06:45:10 PM 41.7686 -82.7464 114° Southeast 166 191 5,100  Level Cleveland Center
Wed 06:46:04 PM 41.7569 -82.6931 106° East 166 191 5,100  Level Cleveland Center
Wed 06:46:58 PM 41.7433 -82.6397 109° East 167 192 5,100  Level Cleveland Center
Wed 06:47:53 PM 41.7278 -82.5864 111° Southeast 166 191 5,100 -52 Level Cleveland Center
Wed 06:48:54 PM 41.7119 -82.5275 110° East 164 189 5,000  Descending Cleveland Center
Wed 06:49:48 PM 41.7006 -82.4742 106° East 162 186 5,100  Climbing Cleveland Center
Wed 06:50:49 PM 41.6867 -82.4183 108° East 164 189 5,000 -47 Descending Cleveland Center
Wed 06:51:56 PM 41.6711 -82.3567 109° East 162 186 5,000  Level Cleveland Center
Wed 06:52:50 PM 41.6572 -82.3033 109° East 162 186 5,000 -209 Level Cleveland Center
Wed 06:53:51 PM 41.6414 -82.2419 109° East 173 199 4,600 -492 Descending Cleveland Center
Wed 06:54:52 PM 41.6258 -82.1775 108° East 180 207 4,000 -590 Descending Cleveland Center
Wed 06:55:53 PM 41.6119 -82.1106 105° East 182 209 3,400 -595 Descending Cleveland Center
Wed 06:56:53 PM 41.5961 -82.0464 108° East 180 207 2,800 -595 Descending Cleveland Center
Wed 06:57:54 PM 41.5783 -81.9822 110° East 175 201 2,200 -469 Descending Cleveland Center
Wed 06:59:01 PM 41.5644 -81.9181 106° East 171 197 1,800 -344 Descending Cleveland Center
Wed 06:59:56 PM 41.5525 -81.8622 106° East 165 190 1,500 -198 Descending Cleveland Center
Wed 07:01:02 PM 41.5367 -81.8036 110° East 154 177 1,400 -142 Descending Cleveland Center
Wed 07:02:03 PM 41.5225 -81.7508 110° East 147 169 1,200 -207 Descending Cleveland Center
Wed 07:02:58 PM 41.5083 -81.7144 117° Southeast 104 120 1,000 -218 Descending Cleveland Center
Wed 07:04:00 PM 41.5175 -81.6833 90° East  Level Estimated
Wed 07:11:00 PM 41.5175 -81.6833 90° East  Level Estimated

Login

Don't have an account? Register now (free) for customized features, flight alerts, and more!